Track Анцыгин Алексей

Time Latitude Longitude Accuracy (66% radius in meters) Altitude (meters) Speed (km/hour) Bearing (degrees) Battery (%) GPS flag
11:10:56 56.387688 43.737055 3.0999999046326 77.3 0 297.76000976562 79 1 delete
11:10:45 56.387595 43.737083 3.2999999523163 76.4 0 158.17999267578 79 1 delete
11:10:35 56.387595 43.737083 3.0999999046326 76.4 0 158.17999267578 79 1 delete
11:10:23 56.387595 43.737083 3 76.4 0 158.17999267578 79 1 delete
11:10:12 56.387595 43.737083 2.9000000953674 76.4 0 158.17999267578 79 1 delete
11:10:01 56.387595 43.737083 3 76.4 0 158.17999267578 79 1 delete
11:09:49 56.387595 43.737083 2.7999999523163 76.4 0 158.17999267578 79 1 delete
11:09:37 56.387595 43.737083 2.9000000953674 76.4 0 158.17999267578 79 1 delete
11:09:27 56.387595 43.737083 2.7999999523163 76.4 0 158.17999267578 79 1 delete
11:09:13 56.387595 43.737083 2.7000000476837 76.4 0 158.17999267578 79 1 delete
11:09:03 56.387595 43.737083 2.7999999523163 76.4 0 158.17999267578 79 1 delete
11:08:51 56.387592 43.737080 3 76.5 0 158.17999267578 79 1 delete
11:08:49 56.387602 43.737085 3 76.7 0.16574054956436 158.17999267578 79 1 delete
11:08:41 56.387687 43.737025 2.9000000953674 76 0 115.84999847412 79 1 delete
11:08:29 56.387687 43.737025 2.7999999523163 76 0 115.84999847412 79 1 delete
11:08:18 56.387687 43.737025 2.9000000953674 76 0 115.84999847412 79 1 delete
11:08:07 56.387687 43.737025 3.0999999046326 76 0 115.84999847412 79 1 delete
11:08:05 56.387687 43.737025 3 76 0 115.84999847412 79 1 delete
11:07:57 56.387655 43.737193 2.9000000953674 74.6 0 115.84999847412 79 1 delete
11:07:45 56.387655 43.737193 2.7999999523163 74.6 0 115.84999847412 79 1 delete
11:07:35 56.387655 43.737193 2.7000000476837 74.6 0 115.84999847412 79 1 delete
11:07:24 56.387655 43.737193 2.7999999523163 74.6 0 115.84999847412 79 1 delete
11:07:13 56.387655 43.737193 3 74.6 0 115.84999847412 79 1 delete
11:07:01 56.387655 43.737193 3.5 74.6 0 115.84999847412 79 1 delete
11:06:51 56.387655 43.737193 3.2000000476837 74.6 0 115.84999847412 79 1 delete
11:06:47 56.387652 43.737177 3.2000000476837 74.5 0 115.84999847412 79 1 delete
11:06:41 56.387660 43.737010 3.2999999523163 73.6 0 115.84999847412 79 1 delete
11:06:29 56.387660 43.737010 3.7000000476837 73.6 0 115.84999847412 79 1 delete
11:06:19 56.387660 43.737010 4.0999999046326 73.6 0 115.84999847412 79 1 delete
11:06:07 56.387660 43.737010 4 73.6 0 115.84999847412 79 1 delete
11:05:55 56.387658 43.737008 3.9000000953674 73.5 0 115.84999847412 79 1 delete
11:05:45 56.387740 43.737090 4 72.7 0 11.25 79 1 delete
11:05:33 56.387740 43.737090 4 72.7 0 11.25 79 1 delete
11:05:23 56.387740 43.737090 4.1999998092651 72.7 0 11.25 79 1 delete
11:05:16 56.387732 43.737053 4.4000000953674 72.6 0 323.35998535156 79 1 delete
11:05:12 56.387640 43.737088 4.4000000953674 71.7 0 21.129999160767 79 1 delete
11:05:01 56.387640 43.737088 4.4000000953674 71.7 0 21.129999160767 79 1 delete
11:04:49 56.387640 43.737088 4.0999999046326 71.7 0 21.129999160767 79 1 delete
11:04:37 56.387640 43.737088 3.9000000953674 71.7 0 21.129999160767 79 1 delete
11:04:27 56.387640 43.737088 3.7999999523163 71.7 0 21.129999160767 79 1 delete
11:04:15 56.387640 43.737088 3.9000000953674 71.7 0 21.129999160767 79 1 delete
11:04:04 56.387688 43.737220 4.0999999046326 71.4 0 21.129999160767 79 1 delete
11:03:54 56.387688 43.737220 4.0999999046326 71.4 0 21.129999160767 79 1 delete
11:03:43 56.387688 43.737220 3.7000000476837 71.4 0 21.129999160767 79 1 delete
11:03:33 56.387688 43.737220 3.5999999046326 71.4 0 21.129999160767 79 1 delete
11:03:21 56.387688 43.737220 3.5999999046326 71.4 0 21.129999160767 79 1 delete
11:03:09 56.387688 43.737220 3.7000000476837 71.4 0 21.129999160767 79 1 delete
11:02:59 56.387688 43.737220 4 71.4 0 21.129999160767 79 1 delete
11:02:49 56.387603 43.737162 4.4000000953674 65.3 0 237.80000305176 79 1 delete
11:02:37 56.387603 43.737162 4.0999999046326 65.3 0 237.80000305176 79 1 delete